createdAt,value
2019-03-06T00:01:12.492Z,95009.45
2019-03-06T00:03:38.847Z,94998.92
2019-03-06T00:06:05.188Z,95002.78
2019-03-06T00:08:31.561Z,95006.64
2019-03-06T00:10:57.883Z,95003.24
2019-03-06T00:13:24.255Z,95008.15
2019-03-06T00:15:50.607Z,94995.06
2019-03-06T00:18:16.959Z,94992.13
2019-03-06T00:20:43.288Z,94987.05
2019-03-06T00:23:09.619Z,94993.02
2019-03-06T00:25:35.988Z,95001.19
2019-03-06T00:28:02.319Z,95008.84
2019-03-06T00:30:28.651Z,95012.06
2019-03-06T00:32:55.081Z,95013.11
2019-03-06T00:35:21.451Z,95016.27
2019-03-06T00:37:47.787Z,95001.17
2019-03-06T00:40:14.109Z,94996.98
2019-03-06T00:42:40.446Z,94989.14
2019-03-06T00:45:06.770Z,94991.48
2019-03-06T00:47:33.119Z,94987.72
2019-03-06T00:49:59.458Z,94986.56
2019-03-06T00:52:25.798Z,94988.67
2019-03-06T00:54:52.128Z,94994.27
2019-03-06T00:57:18.450Z,94993.20
2019-03-06T00:59:44.780Z,94985.37
2019-03-06T01:02:11.163Z,94989.69
2019-03-06T01:04:37.543Z,94977.66
2019-03-06T01:07:03.873Z,94983.77
2019-03-06T01:09:30.205Z,94989.69
2019-03-06T01:11:56.645Z,94989.12
2019-03-06T01:14:22.995Z,94997.40
2019-03-06T01:16:49.347Z,94990.50
2019-03-06T01:19:15.678Z,94988.16
2019-03-06T01:21:42.045Z,94988.98
2019-03-06T01:24:08.373Z,94984.77
2019-03-06T01:26:34.752Z,94984.44
2019-03-06T01:29:01.105Z,94979.77
2019-03-06T01:31:27.560Z,94986.20
2019-03-06T01:33:53.930Z,94979.77
2019-03-06T01:36:20.266Z,94959.42
2019-03-06T01:38:46.646Z,94979.55
2019-03-06T01:41:12.922Z,94981.30
2019-03-06T01:43:39.294Z,94971.96
2019-03-06T01:46:05.641Z,94964.36
2019-03-06T01:48:31.984Z,94961.92
2019-03-06T01:50:58.311Z,94964.13
2019-03-06T01:53:24.643Z,94963.56
2019-03-06T01:55:50.992Z,94964.03
2019-03-06T01:58:17.397Z,94959.48
2019-03-06T02:00:43.820Z,94964.67
2019-03-06T02:03:10.257Z,94976.23
2019-03-06T02:05:36.572Z,94970.09
2019-03-06T02:08:02.951Z,94964.73
2019-03-06T02:10:29.323Z,94963.84
2019-03-06T02:12:55.647Z,94967.02
2019-03-06T02:15:21.987Z,94968.67
2019-03-06T02:17:48.327Z,94962.24
2019-03-06T02:20:14.656Z,94963.53
2019-03-06T02:22:41.109Z,94956.74
2019-03-06T02:25:07.439Z,94962.25
2019-03-06T02:27:33.773Z,94963.30
2019-03-06T02:30:00.334Z,94960.41
2019-03-06T02:32:26.432Z,94952.69
2019-03-06T02:34:52.770Z,94959.25
2019-03-06T02:37:19.089Z,94961.56
2019-03-06T02:39:45.464Z,94962.98
2019-03-06T02:42:11.754Z,94958.53
2019-03-06T02:44:40.108Z,94969.64
2019-03-06T02:47:04.498Z,94970.02
2019-03-06T02:49:30.838Z,94970.70
2019-03-06T02:51:57.238Z,94968.03
2019-03-06T02:54:23.750Z,94969.31
2019-03-06T02:56:50.031Z,94972.48
2019-03-06T02:59:16.370Z,94979.02
2019-03-06T03:01:42.701Z,94982.77
2019-03-06T03:04:09.090Z,94988.98
2019-03-06T03:06:35.457Z,94994.36
2019-03-06T03:09:01.838Z,94990.62
2019-03-06T03:11:28.163Z,94992.70
2019-03-06T03:13:54.513Z,94999.50
2019-03-06T03:16:20.853Z,94999.86
2019-03-06T03:18:47.231Z,94994.36
2019-03-06T03:21:13.631Z,94999.40
2019-03-06T03:23:39.939Z,95001.02
2019-03-06T03:26:06.277Z,94999.27
2019-03-06T03:28:32.608Z,95000.09
2019-03-06T03:30:58.956Z,95001.48
2019-03-06T03:33:25.311Z,95006.20
2019-03-06T03:35:51.723Z,95003.72
2019-03-06T03:38:18.193Z,95002.44
2019-03-06T03:40:44.481Z,95004.55
2019-03-06T03:43:10.829Z,95008.77
2019-03-06T03:45:37.140Z,95009.92
2019-03-06T03:48:03.485Z,95008.54
2019-03-06T03:50:29.858Z,95008.54
2019-03-06T03:52:56.214Z,94996.95
2019-03-06T03:55:22.540Z,94999.86
2019-03-06T03:57:48.850Z,94997.55
2019-03-06T04:00:15.206Z,95002.47
2019-03-06T04:02:41.668Z,95006.56
2019-03-06T04:05:08.058Z,95005.04
2019-03-06T04:07:34.395Z,95004.04
2019-03-06T04:10:00.726Z,94999.58
2019-03-06T04:12:27.060Z,95012.45
2019-03-06T04:14:53.388Z,95008.72
2019-03-06T04:17:20.059Z,95011.98
2019-03-06T04:19:46.397Z,94997.84
2019-03-06T04:22:12.770Z,94999.72
2019-03-06T04:24:39.094Z,95000.05
2019-03-06T04:27:05.422Z,94997.81
2019-03-06T04:29:31.782Z,95010.72
2019-03-06T04:31:58.109Z,95004.98
2019-03-06T04:34:24.479Z,95002.64
2019-03-06T04:36:50.817Z,95011.18
2019-03-06T04:39:17.150Z,95016.45
2019-03-06T04:41:43.498Z,95015.63
2019-03-06T04:44:09.873Z,95022.77
2019-03-06T04:46:36.146Z,95036.00
2019-03-06T04:49:02.533Z,95032.47
2019-03-06T04:51:28.864Z,95033.52
2019-03-06T04:53:55.215Z,95045.93
2019-03-06T04:56:21.623Z,95055.67
2019-03-06T04:58:47.929Z,95066.80
2019-03-06T05:01:14.293Z,95076.96
2019-03-06T05:03:40.584Z,95074.64
2019-03-06T05:06:06.914Z,95063.52
2019-03-06T05:08:33.244Z,95082.59
2019-03-06T05:10:59.575Z,95083.29
2019-03-06T05:13:25.940Z,95089.49
2019-03-06T05:15:52.271Z,95081.44
2019-03-06T05:18:18.613Z,95072.41
2019-03-06T05:20:44.952Z,95085.63
2019-03-06T05:23:11.294Z,95080.62
2019-03-06T05:25:37.655Z,95091.77
2019-03-06T05:28:03.985Z,95092.23
2019-03-06T05:30:30.366Z,95089.05
2019-03-06T05:32:56.702Z,95083.43
2019-03-06T05:35:23.136Z,95090.22
2019-03-06T05:37:49.460Z,95089.86
2019-03-06T05:40:15.795Z,95089.86
2019-03-06T05:42:42.128Z,95090.20
2019-03-06T05:45:08.463Z,95087.06
2019-03-06T05:47:34.794Z,95088.23
2019-03-06T05:50:01.124Z,95096.66
2019-03-06T05:52:27.547Z,95103.92
2019-03-06T05:54:53.901Z,95108.94
2019-03-06T05:57:20.223Z,95106.50
2019-03-06T05:59:46.548Z,95101.22
2019-03-06T06:02:12.877Z,95108.23
2019-03-06T06:04:39.227Z,95111.98
2019-03-06T06:07:05.598Z,95117.25
2019-03-06T06:09:31.932Z,95115.72
2019-03-06T06:11:58.202Z,95113.23
2019-03-06T06:14:24.581Z,95119.22
2019-03-06T06:16:50.879Z,95117.12
2019-03-06T06:19:17.238Z,95119.34
2019-03-06T06:21:43.583Z,95117.42
2019-03-06T06:24:09.912Z,95124.94
2019-03-06T06:26:36.261Z,95127.06
2019-03-06T06:29:02.604Z,95122.72
2019-03-06T06:31:28.986Z,95127.28
2019-03-06T06:33:55.396Z,95131.75
2019-03-06T06:36:21.760Z,95135.95
2019-03-06T06:38:48.085Z,95141.11
2019-03-06T06:41:14.445Z,95131.61
2019-03-06T06:43:40.779Z,95137.69
2019-03-06T06:46:07.661Z,95135.83
2019-03-06T06:48:36.029Z,95148.98
2019-03-06T06:51:02.566Z,95153.89
2019-03-06T06:53:28.708Z,95155.63
2019-03-06T06:55:55.093Z,95153.59
2019-03-06T06:58:30.944Z,95160.87
2019-03-06T07:00:47.795Z,95163.42
2019-03-06T07:03:14.144Z,95165.97
2019-03-06T07:05:40.487Z,95173.97
2019-03-06T07:08:06.854Z,95160.65
2019-03-06T07:10:33.176Z,95160.27
2019-03-06T07:12:59.508Z,95168.09
2019-03-06T07:15:25.983Z,95167.81
2019-03-06T07:17:52.319Z,95174.38
2019-03-06T07:20:18.851Z,95180.08
2019-03-06T07:22:45.385Z,95177.27
2019-03-06T07:25:11.736Z,95177.84
2019-03-06T07:27:38.079Z,95180.90
2019-03-06T07:30:04.447Z,95184.20
2019-03-06T07:32:30.804Z,95186.02
2019-03-06T07:34:57.145Z,95187.56
2019-03-06T07:37:28.666Z,95190.83
2019-03-06T07:39:49.924Z,95190.66
2019-03-06T07:42:16.308Z,95191.08
2019-03-06T07:44:42.659Z,95194.27
2019-03-06T07:47:08.993Z,95200.80
2019-03-06T07:49:44.444Z,95198.23
2019-03-06T07:52:01.692Z,95200.13
2019-03-06T07:54:28.039Z,95198.94
2019-03-06T07:56:54.388Z,95198.55
2019-03-06T07:59:20.724Z,95201.30
2019-03-06T08:01:47.057Z,95203.03
2019-03-06T08:04:13.386Z,95202.92
2019-03-06T08:06:39.738Z,95209.45
2019-03-06T08:09:06.080Z,95210.02
2019-03-06T08:11:32.606Z,95212.36
2019-03-06T08:14:01.160Z,95222.05
2019-03-06T08:16:28.486Z,95227.54
2019-03-06T08:18:56.004Z,95217.98
2019-03-06T08:21:21.459Z,95222.84
2019-03-06T08:23:47.811Z,95221.61
2019-03-06T08:26:14.194Z,95220.48
2019-03-06T08:28:40.527Z,95218.61
2019-03-06T08:31:06.961Z,95224.67
2019-03-06T08:33:33.289Z,95224.01
2019-03-06T08:35:59.692Z,95230.61
2019-03-06T08:38:26.080Z,95226.48
2019-03-06T08:40:52.413Z,95209.11
2019-03-06T08:43:18.879Z,95227.41
2019-03-06T08:45:45.210Z,95230.94
2019-03-06T08:48:12.134Z,95231.34
2019-03-06T08:50:38.480Z,95225.78
2019-03-06T08:53:04.897Z,95234.25
2019-03-06T08:55:31.364Z,95232.81
2019-03-06T08:57:57.677Z,95230.77
2019-03-06T09:00:24.225Z,95234.91
2019-03-06T09:02:50.577Z,95235.89
2019-03-06T09:05:16.918Z,95239.66
2019-03-06T09:07:43.318Z,95237.91
2019-03-06T09:10:09.701Z,95241.80
2019-03-06T09:12:36.184Z,95235.79
2019-03-06T09:15:02.621Z,95242.20
2019-03-06T09:17:28.966Z,95251.56
2019-03-06T09:19:55.364Z,95258.28
2019-03-06T09:22:22.133Z,95260.20
2019-03-06T09:24:48.491Z,95253.52
2019-03-06T09:27:14.854Z,95256.84
2019-03-06T09:29:41.178Z,95254.16
2019-03-06T09:32:07.589Z,95248.72
2019-03-06T09:34:33.941Z,95251.33
2019-03-06T09:37:00.429Z,95251.69
2019-03-06T09:39:26.823Z,95254.13
2019-03-06T09:41:53.226Z,95254.99
2019-03-06T09:44:19.552Z,95257.33
2019-03-06T09:46:45.975Z,95256.97
2019-03-06T09:49:12.312Z,95263.03
2019-03-06T09:51:38.650Z,95255.67
2019-03-06T09:54:05.045Z,95257.25
2019-03-06T09:56:31.386Z,95258.22
2019-03-06T09:58:57.724Z,95255.00
2019-03-06T10:01:24.090Z,95254.42
2019-03-06T10:03:50.484Z,95248.86
2019-03-06T10:06:16.885Z,95249.22
2019-03-06T10:08:43.231Z,95253.19
2019-03-06T10:11:09.562Z,95248.86
2019-03-06T10:13:41.719Z,95247.95
2019-03-06T10:16:02.312Z,95250.36
2019-03-06T10:18:28.720Z,95238.41
2019-03-06T10:20:55.067Z,95244.00
2019-03-06T10:23:21.516Z,95235.98
2019-03-06T10:25:47.883Z,95233.09
2019-03-06T10:28:14.219Z,95229.32
2019-03-06T10:30:40.591Z,95232.16
2019-03-06T10:33:06.919Z,95232.59
2019-03-06T10:35:33.317Z,95227.60
2019-03-06T10:37:59.652Z,95231.27
2019-03-06T10:40:26.031Z,95234.89
2019-03-06T10:42:52.465Z,95237.84
2019-03-06T10:45:18.809Z,95234.42
2019-03-06T10:47:45.195Z,95227.97
2019-03-06T10:50:11.553Z,95226.77
2019-03-06T10:52:38.003Z,95217.77
2019-03-06T10:55:04.397Z,95221.44
2019-03-06T10:57:30.779Z,95211.71
2019-03-06T10:59:57.304Z,95208.88
2019-03-06T11:02:23.637Z,95202.14
2019-03-06T11:04:50.017Z,95199.84
2019-03-06T11:07:16.378Z,95191.55
2019-03-06T11:09:42.792Z,95196.64
2019-03-06T11:12:09.265Z,95193.09
2019-03-06T11:14:35.593Z,95191.02
2019-03-06T11:17:01.924Z,95189.36
2019-03-06T11:19:28.313Z,95186.42
2019-03-06T11:21:54.827Z,95193.59
2019-03-06T11:24:21.115Z,95194.17
2019-03-06T11:26:47.449Z,95195.22
2019-03-06T11:29:13.788Z,95198.77
2019-03-06T11:31:40.301Z,95197.83
2019-03-06T11:34:06.761Z,95194.42
2019-03-06T11:36:33.166Z,95192.31
2019-03-06T11:38:59.495Z,95187.81
2019-03-06T11:41:25.841Z,95184.66
2019-03-06T11:43:52.219Z,95179.96
2019-03-06T11:46:18.685Z,95179.86
2019-03-06T11:48:45.025Z,95183.73
2019-03-06T11:51:11.448Z,95175.27
2019-03-06T11:53:38.779Z,95174.13
2019-03-06T11:56:07.669Z,95179.70
2019-03-06T11:58:34.000Z,95168.34
2019-03-06T12:01:00.410Z,95166.36
2019-03-06T12:03:26.794Z,95173.76
2019-03-06T12:05:53.128Z,95174.34
2019-03-06T12:08:19.691Z,95175.63
2019-03-06T12:10:46.025Z,95173.41
2019-03-06T12:13:12.364Z,95175.77
2019-03-06T12:15:38.771Z,95179.28
2019-03-06T12:18:05.180Z,95181.72
2019-03-06T12:20:31.625Z,95182.30
2019-03-06T12:22:57.959Z,95179.03
2019-03-06T12:25:24.287Z,95173.62
2019-03-06T12:27:50.713Z,95179.72
2019-03-06T12:30:17.054Z,95178.71
2019-03-06T12:32:45.633Z,95179.50
2019-03-06T12:35:10.725Z,95176.84
2019-03-06T12:37:46.458Z,95182.08
2019-03-06T12:40:12.026Z,95182.09
2019-03-06T12:42:30.874Z,95175.38
2019-03-06T12:44:57.225Z,95172.22
2019-03-06T12:47:24.013Z,95177.14
2019-03-06T12:49:50.375Z,95181.63
2019-03-06T12:52:16.853Z,95185.70
2019-03-06T12:54:43.333Z,95182.09
2019-03-06T12:57:10.887Z,95185.84
2019-03-06T12:59:37.510Z,95192.77
2019-03-06T13:02:04.985Z,95197.58
2019-03-06T13:04:31.417Z,95190.91
2019-03-06T13:06:57.818Z,95195.21
2019-03-06T13:09:24.255Z,95195.89
2019-03-06T13:11:50.673Z,95195.82
2019-03-06T13:14:17.050Z,95201.38
2019-03-06T13:16:45.883Z,95192.98
2019-03-06T13:19:12.249Z,95193.34
2019-03-06T13:21:39.133Z,95198.27
2019-03-06T13:24:05.549Z,95197.76
2019-03-06T13:26:34.409Z,95194.49
2019-03-06T13:29:00.898Z,95192.37
2019-03-06T13:31:27.265Z,95195.89
2019-03-06T13:33:53.653Z,95190.73
2019-03-06T13:36:20.042Z,95194.70
2019-03-06T13:38:54.666Z,95189.89
2019-03-06T13:41:12.857Z,95192.84
2019-03-06T13:43:39.241Z,95193.31
2019-03-06T13:46:06.920Z,95196.53
2019-03-06T13:48:33.929Z,95196.39
2019-03-06T13:51:00.386Z,95195.85
2019-03-06T13:53:26.946Z,95194.23
2019-03-06T13:55:53.341Z,95203.95
2019-03-06T13:58:19.769Z,95199.62
2019-03-06T14:00:46.093Z,95207.16
2019-03-06T14:03:12.451Z,95204.23
2019-03-06T14:05:38.793Z,95202.52
2019-03-06T14:08:05.195Z,95201.95
2019-03-06T14:10:31.582Z,95203.13
2019-03-06T14:12:57.983Z,95199.84
2019-03-06T14:15:24.481Z,95200.66
2019-03-06T14:17:50.778Z,95200.66
2019-03-06T14:20:17.107Z,95204.79
2019-03-06T14:22:43.499Z,95200.45
2019-03-06T14:25:09.833Z,95205.30
2019-03-06T14:27:36.168Z,95199.05
2019-03-06T14:30:02.568Z,95198.33
2019-03-06T14:32:28.897Z,95195.64
2019-03-06T14:34:55.328Z,95202.34
2019-03-06T14:37:21.687Z,95201.52
2019-03-06T14:39:48.040Z,95206.23
2019-03-06T14:42:14.457Z,95208.92
2019-03-06T14:44:40.856Z,95208.23
2019-03-06T14:47:07.314Z,95213.16
2019-03-06T14:49:33.655Z,95215.27
2019-03-06T14:52:06.888Z,95215.02
2019-03-06T14:54:26.507Z,95216.81
2019-03-06T14:56:52.863Z,95216.92
2019-03-06T14:59:19.203Z,95219.07
2019-03-06T15:01:45.575Z,95217.17
2019-03-06T15:04:11.935Z,95222.55
2019-03-06T15:06:38.270Z,95226.89
2019-03-06T15:09:04.679Z,95227.00
2019-03-06T15:11:33.283Z,95222.55
2019-03-06T15:13:57.423Z,95221.73
2019-03-06T15:16:23.711Z,95230.30
2019-03-06T15:18:50.099Z,95230.09
2019-03-06T15:21:16.448Z,95236.08
2019-03-06T15:23:42.803Z,95239.48
2019-03-06T15:26:09.986Z,95235.03
2019-03-06T15:28:35.670Z,95238.55
2019-03-06T15:31:02.084Z,95239.02
2019-03-06T15:33:28.436Z,95238.34
2019-03-06T15:35:54.829Z,95244.30
2019-03-06T15:38:21.173Z,95249.02
2019-03-06T15:40:47.568Z,95251.25
2019-03-06T15:43:13.910Z,95251.47
2019-03-06T15:45:42.718Z,95251.11
2019-03-06T15:48:09.055Z,95256.99
2019-03-06T15:50:35.445Z,95259.68
2019-03-06T15:53:01.774Z,95254.98
2019-03-06T15:55:28.114Z,95258.66
2019-03-06T15:57:54.461Z,95255.83
2019-03-06T16:00:21.033Z,95261.14
2019-03-06T16:02:47.437Z,95262.67
2019-03-06T16:05:13.800Z,95275.58
2019-03-06T16:07:40.141Z,95279.09
2019-03-06T16:10:06.486Z,95276.88
2019-03-06T16:12:32.877Z,95280.39
2019-03-06T16:14:59.230Z,95283.19
2019-03-06T16:17:25.603Z,95299.41
2019-03-06T16:19:51.944Z,95301.07
2019-03-06T16:22:18.273Z,95302.23
2019-03-06T16:24:44.607Z,95309.88
2019-03-06T16:27:11.003Z,95309.07
2019-03-06T16:29:37.384Z,95314.92
2019-03-06T16:32:03.731Z,95320.33
2019-03-06T16:34:30.139Z,95323.62
2019-03-06T16:36:56.438Z,95325.39
2019-03-06T16:39:22.788Z,95323.86
2019-03-06T16:41:49.117Z,95324.33
2019-03-06T16:44:15.460Z,95331.38
2019-03-06T16:46:41.794Z,95327.74
2019-03-06T16:49:08.259Z,95329.14
2019-03-06T16:51:34.595Z,95330.67
2019-03-06T16:54:00.930Z,95340.64
2019-03-06T16:56:27.264Z,95343.09
2019-03-06T16:58:53.620Z,95337.93
2019-03-06T17:01:19.967Z,95343.55
2019-03-06T17:03:46.298Z,95352.59
2019-03-06T17:06:12.632Z,95359.97
2019-03-06T17:08:38.963Z,95360.34
2019-03-06T17:11:05.363Z,95362.68
2019-03-06T17:13:32.848Z,95364.44
2019-03-06T17:15:59.192Z,95371.48
2019-03-06T17:18:25.523Z,95368.90
2019-03-06T17:20:51.897Z,95370.31
2019-03-06T17:23:18.259Z,95373.96
2019-03-06T17:25:44.611Z,95374.19
2019-03-06T17:28:10.977Z,95377.95
2019-03-06T17:30:37.275Z,95377.23
2019-03-06T17:33:03.677Z,95376.30
2019-03-06T17:35:30.006Z,95380.05
2019-03-06T17:37:56.348Z,95383.91
2019-03-06T17:40:22.689Z,95392.02
2019-03-06T17:42:49.045Z,95395.53
2019-03-06T17:45:15.469Z,95396.36
2019-03-06T17:47:41.811Z,95401.05
2019-03-06T17:50:08.111Z,95392.95
2019-03-06T17:52:34.471Z,95392.85
2019-03-06T17:55:00.809Z,95391.66
2019-03-06T17:57:27.178Z,95396.59
2019-03-06T17:59:53.549Z,95393.08
2019-03-06T18:02:20.099Z,95391.43
2019-03-06T18:04:46.423Z,95392.13
2019-03-06T18:07:12.795Z,95383.69
2019-03-06T18:09:39.174Z,95388.23
2019-03-06T18:12:05.503Z,95382.50
2019-03-06T18:14:31.840Z,95379.89
2019-03-06T18:16:58.179Z,95378.60
2019-03-06T18:19:24.541Z,95373.31
2019-03-06T18:21:50.863Z,95374.23
2019-03-06T18:24:17.237Z,95372.62
2019-03-06T18:26:43.574Z,95379.16
2019-03-06T18:29:09.947Z,95379.53
2019-03-06T18:31:36.356Z,95385.75
2019-03-06T18:34:02.741Z,95384.69
2019-03-06T18:36:29.043Z,95391.70
2019-03-06T18:38:55.376Z,95393.82
2019-03-06T18:41:21.705Z,95392.30
2019-03-06T18:43:48.052Z,95391.14
2019-03-06T18:46:14.410Z,95388.79
2019-03-06T18:48:40.755Z,95387.83
2019-03-06T18:51:07.127Z,95389.22
2019-03-06T18:53:33.461Z,95389.58
2019-03-06T18:55:59.826Z,95389.81
2019-03-06T18:58:26.293Z,95388.19
2019-03-06T19:00:52.574Z,95389.11
2019-03-06T19:03:18.989Z,95390.05
2019-03-06T19:05:45.281Z,95389.94
2019-03-06T19:08:12.950Z,95390.05
2019-03-06T19:10:38.022Z,95388.88
2019-03-06T19:13:04.406Z,95385.25
2019-03-06T19:15:30.889Z,95392.16
2019-03-06T19:17:57.210Z,95388.05
2019-03-06T19:20:23.543Z,95389.08
2019-03-06T19:22:49.932Z,95396.81
2019-03-06T19:25:16.251Z,95394.59
2019-03-06T19:27:42.688Z,95392.02
2019-03-06T19:30:09.019Z,95397.04
2019-03-06T19:32:35.358Z,95399.97
2019-03-06T19:35:01.697Z,95407.11
2019-03-06T19:37:28.027Z,95407.44
2019-03-06T19:39:54.426Z,95409.32
2019-03-06T19:42:20.798Z,95414.38
2019-03-06T19:44:47.101Z,95419.78
2019-03-06T19:47:13.430Z,95422.91
2019-03-06T19:49:39.815Z,95424.80
2019-03-06T19:52:06.173Z,95431.84
2019-03-06T19:54:32.505Z,95434.78
2019-03-06T19:56:58.833Z,95433.23
2019-03-06T19:59:25.147Z,95433.23
2019-03-06T20:01:52.511Z,95433.59
2019-03-06T20:04:17.855Z,95432.43
2019-03-06T20:06:44.185Z,95430.65
2019-03-06T20:09:10.539Z,95434.28
2019-03-06T20:11:36.931Z,95431.59
2019-03-06T20:14:03.263Z,95435.78
2019-03-06T20:16:29.646Z,95443.52
2019-03-06T20:18:55.982Z,95436.24
2019-03-06T20:21:22.323Z,95442.92
2019-03-06T20:23:48.808Z,95440.11
2019-03-06T20:26:15.157Z,95438.12
2019-03-06T20:28:41.530Z,95439.72
2019-03-06T20:31:07.874Z,95439.25
2019-03-06T20:33:34.224Z,95447.17
2019-03-06T20:36:00.536Z,95447.39
2019-03-06T20:38:26.865Z,95451.45
2019-03-06T20:40:53.197Z,95447.55
2019-03-06T20:43:19.664Z,95447.99
2019-03-06T20:45:46.028Z,95449.28
2019-03-06T20:48:12.419Z,95453.46
2019-03-06T20:50:38.857Z,95452.39
2019-03-06T20:53:05.203Z,95455.45
2019-03-06T20:55:31.531Z,95451.81
2019-03-06T20:57:57.928Z,95458.92
2019-03-06T21:00:24.272Z,95465.67
2019-03-06T21:02:50.632Z,95468.01
2019-03-06T21:05:16.955Z,95470.34
2019-03-06T21:07:45.056Z,95473.47
2019-03-06T21:10:09.662Z,95469.51
2019-03-06T21:12:36.042Z,95468.16
2019-03-06T21:15:02.382Z,95463.95
2019-03-06T21:17:28.711Z,95463.34
2019-03-06T21:19:55.056Z,95458.04
2019-03-06T21:22:21.428Z,95462.48
2019-03-06T21:24:47.764Z,95468.09
2019-03-06T21:27:14.131Z,95469.02
2019-03-06T21:29:40.661Z,95468.98
2019-03-06T21:32:06.897Z,95466.77
2019-03-06T21:34:33.191Z,95475.78
2019-03-06T21:36:59.524Z,95470.69
2019-03-06T21:39:25.983Z,95466.55
2019-03-06T21:41:52.319Z,95472.70
2019-03-06T21:44:18.664Z,95474.36
2019-03-06T21:46:44.989Z,95469.05
2019-03-06T21:49:11.325Z,95466.84
2019-03-06T21:51:37.707Z,95473.23
2019-03-06T21:54:04.167Z,95476.27
2019-03-06T21:56:30.547Z,95481.26
2019-03-06T21:58:56.870Z,95479.97
2019-03-06T22:01:23.210Z,95482.09
2019-03-06T22:03:49.608Z,95476.78
2019-03-06T22:06:17.633Z,95485.24
2019-03-06T22:08:42.294Z,95477.61
2019-03-06T22:11:08.625Z,95477.11
2019-03-06T22:13:34.953Z,95481.05
2019-03-06T22:16:01.345Z,95493.83
2019-03-06T22:18:27.713Z,95496.61
2019-03-06T22:20:54.084Z,95492.02
2019-03-06T22:23:20.515Z,95494.22
2019-03-06T22:25:46.895Z,95492.13
2019-03-06T22:28:13.232Z,95495.16
2019-03-06T22:30:39.611Z,95485.41
2019-03-06T22:33:05.944Z,95489.28
2019-03-06T22:35:32.283Z,95490.77
2019-03-06T22:37:58.656Z,95488.56
2019-03-06T22:40:24.987Z,95491.59
2019-03-06T22:42:51.379Z,95494.38
2019-03-06T22:45:17.702Z,95496.48
2019-03-06T22:47:44.053Z,95496.48
2019-03-06T22:50:10.395Z,95490.84
2019-03-06T22:52:36.724Z,95483.78
2019-03-06T22:55:03.125Z,95484.58
2019-03-06T22:57:29.579Z,95480.17
2019-03-06T22:59:55.977Z,95477.35
2019-03-06T23:02:22.322Z,95477.64
2019-03-06T23:04:48.653Z,95482.33
2019-03-06T23:07:15.013Z,95487.56
2019-03-06T23:09:41.356Z,95486.90
2019-03-06T23:12:07.749Z,95481.45
2019-03-06T23:14:34.097Z,95479.34
2019-03-06T23:17:00.492Z,95476.39
2019-03-06T23:19:26.824Z,95470.33
2019-03-06T23:21:53.155Z,95474.85
2019-03-06T23:24:19.504Z,95471.83
2019-03-06T23:26:45.829Z,95470.62
2019-03-06T23:29:12.226Z,95477.88
2019-03-06T23:31:38.558Z,95472.36
2019-03-06T23:34:04.900Z,95464.66
2019-03-06T23:36:31.222Z,95469.08
2019-03-06T23:38:57.562Z,95466.14
2019-03-06T23:41:24.032Z,95463.69
2019-03-06T23:43:50.401Z,95462.97
2019-03-06T23:46:16.700Z,95469.86
2019-03-06T23:48:43.032Z,95462.77
2019-03-06T23:51:09.451Z,95464.34
2019-03-06T23:53:35.775Z,95471.69
2019-03-06T23:56:02.111Z,95472.27
2019-03-06T23:58:28.495Z,95470.15
